createdAt,value
2023-05-05T00:01:25.422Z,2.20
2023-05-05T00:04:27.955Z,1.77
2023-05-05T00:07:30.081Z,2.10
2023-05-05T00:10:32.565Z,2.10
2023-05-05T00:13:34.690Z,2.33
2023-05-05T00:16:37.004Z,2.20
2023-05-05T00:19:39.248Z,1.77
2023-05-05T00:22:41.351Z,2.00
2023-05-05T00:25:43.588Z,2.10
2023-05-05T00:28:45.752Z,2.20
2023-05-05T00:31:47.922Z,2.00
2023-05-05T00:34:50.067Z,2.37
2023-05-05T00:37:52.231Z,2.22
2023-05-05T00:40:54.421Z,2.50
2023-05-05T00:43:56.598Z,1.90
2023-05-05T00:46:59.352Z,2.00
2023-05-05T00:50:02.964Z,1.88
2023-05-05T00:53:06.484Z,1.90
2023-05-05T00:56:08.927Z,2.50
2023-05-05T00:59:11.320Z,2.35
2023-05-05T01:02:13.966Z,2.10
2023-05-05T01:05:16.607Z,1.80
2023-05-05T01:08:29.564Z,2.05
2023-05-05T01:11:49.729Z,2.03
2023-05-05T01:15:01.714Z,2.10
2023-05-05T01:18:47.047Z,1.83
2023-05-05T01:21:56.443Z,2.08
2023-05-05T01:25:30.038Z,2.20
2023-05-05T01:28:42.599Z,2.50
2023-05-05T01:31:53.430Z,2.63
2023-05-05T01:35:02.455Z,2.47
2023-05-05T01:38:09.865Z,2.03
2023-05-05T01:41:19.763Z,2.20
2023-05-05T01:44:21.992Z,2.28
2023-05-05T01:47:24.798Z,2.20
2023-05-05T01:50:28.691Z,2.13
2023-05-05T01:53:31.383Z,2.33
2023-05-05T01:56:34.816Z,2.35
2023-05-05T01:59:39.594Z,2.33
2023-05-05T02:02:44.545Z,2.10
2023-05-05T02:05:47.128Z,2.40
2023-05-05T02:08:49.757Z,2.23
2023-05-05T02:11:52.389Z,2.60
2023-05-05T02:14:56.331Z,2.15
2023-05-05T02:17:59.606Z,2.40
2023-05-05T02:21:02.536Z,2.50
2023-05-05T02:24:05.132Z,2.85
2023-05-05T02:27:07.573Z,2.10
2023-05-05T02:30:11.645Z,2.15
2023-05-05T02:33:15.121Z,2.60
2023-05-05T02:36:20.763Z,2.65
2023-05-05T02:39:33.252Z,2.13
2023-05-05T02:42:41.062Z,2.42
2023-05-05T02:45:46.270Z,2.38
2023-05-05T02:48:49.524Z,3.13
2023-05-05T02:51:51.848Z,2.20
2023-05-05T02:55:00.352Z,2.08
2023-05-05T02:58:06.759Z,2.22
2023-05-05T03:01:47.833Z,2.22
2023-05-05T03:04:56.414Z,2.58
2023-05-05T03:08:03.949Z,2.30
2023-05-05T03:11:16.651Z,2.00
2023-05-05T03:14:21.058Z,2.28
2023-05-05T03:17:25.892Z,2.35
2023-05-05T03:20:29.037Z,2.57
2023-05-05T03:23:33.425Z,2.42
2023-05-05T03:26:35.697Z,2.40
2023-05-05T03:29:38.093Z,2.63
2023-05-05T03:32:44.468Z,2.58
2023-05-05T03:35:46.772Z,2.20
2023-05-05T03:38:49.891Z,2.60
2023-05-05T03:41:54.279Z,2.30
2023-05-05T03:44:57.563Z,2.72
2023-05-05T03:48:00.656Z,2.42
2023-05-05T03:51:03.348Z,2.40
2023-05-05T03:54:08.072Z,2.20
2023-05-05T03:57:11.586Z,2.63
2023-05-05T04:00:15.197Z,3.00
2023-05-05T04:03:19.994Z,3.03
2023-05-05T04:06:23.190Z,2.88
2023-05-05T04:09:25.528Z,2.72
2023-05-05T04:12:27.844Z,2.67
2023-05-05T04:15:30.888Z,2.92
2023-05-05T04:18:33.264Z,2.70
2023-05-05T04:21:35.839Z,3.10
2023-05-05T04:24:38.702Z,2.72
2023-05-05T04:27:40.915Z,2.95
2023-05-05T04:30:43.424Z,2.90
2023-05-05T04:33:45.943Z,2.92
2023-05-05T04:36:48.802Z,3.15
2023-05-05T04:39:51.754Z,3.33
2023-05-05T04:42:54.503Z,3.07
2023-05-05T04:45:57.209Z,2.97
2023-05-05T04:49:05.065Z,2.70
2023-05-05T04:52:07.934Z,2.93
2023-05-05T04:55:11.559Z,3.40
2023-05-05T04:58:13.792Z,2.63
2023-05-05T05:01:16.233Z,2.97
2023-05-05T05:04:18.862Z,2.88
2023-05-05T05:07:21.300Z,3.28
2023-05-05T05:10:23.480Z,3.33
2023-05-05T05:13:26.040Z,3.00
2023-05-05T05:16:28.448Z,2.90
2023-05-05T05:19:30.739Z,2.55
2023-05-05T05:22:33.068Z,3.30
2023-05-05T05:25:39.293Z,2.60
2023-05-05T05:28:41.881Z,3.13
2023-05-05T05:31:44.222Z,2.97
2023-05-05T05:34:46.452Z,2.53
2023-05-05T05:37:50.868Z,2.88
2023-05-05T05:40:54.536Z,3.08
2023-05-05T05:43:57.999Z,2.80
2023-05-05T05:47:00.748Z,2.70
2023-05-05T05:50:04.950Z,2.53
2023-05-05T05:53:07.651Z,2.60
2023-05-05T05:56:09.880Z,2.70
2023-05-05T05:59:12.913Z,2.35
2023-05-05T06:02:16.687Z,2.60
2023-05-05T06:05:27.158Z,2.35
2023-05-05T06:08:33.511Z,2.30
2023-05-05T06:11:43.525Z,3.05
2023-05-05T06:14:45.923Z,2.10
2023-05-05T06:17:48.488Z,2.53
2023-05-05T06:20:51.417Z,2.65
2023-05-05T06:23:58.596Z,2.57
2023-05-05T06:27:02.298Z,2.33
2023-05-05T06:30:07.874Z,2.63
2023-05-05T06:33:13.649Z,2.17
2023-05-05T06:36:16.513Z,2.22
2023-05-05T06:39:18.838Z,1.80
2023-05-05T06:42:21.158Z,1.90
2023-05-05T06:45:23.485Z,1.97
2023-05-05T06:48:25.874Z,2.08
2023-05-05T06:51:28.071Z,2.03
2023-05-05T06:54:31.084Z,1.80
2023-05-05T06:57:33.434Z,1.80
2023-05-05T07:00:35.609Z,2.17
2023-05-05T07:03:38.126Z,1.88
2023-05-05T07:10:17.008Z,2.50
2023-05-05T07:21:15.398Z,2.30
2023-05-05T07:24:32.204Z,2.22
2023-05-05T07:27:48.480Z,2.10
2023-05-05T07:30:58.454Z,2.20
2023-05-05T07:34:00.774Z,2.15
2023-05-05T07:37:04.105Z,1.70
2023-05-05T07:40:07.198Z,2.00
2023-05-05T07:43:09.937Z,2.03
2023-05-05T07:46:15.499Z,2.03
2023-05-05T07:50:27.121Z,2.00
2023-05-05T07:53:41.669Z,2.35
2023-05-05T07:56:45.443Z,1.75
2023-05-05T07:59:47.790Z,2.27
2023-05-05T08:02:52.996Z,2.63
2023-05-05T08:09:57.935Z,2.50
2023-05-05T08:13:04.126Z,1.80
2023-05-05T08:16:12.656Z,2.20
2023-05-05T08:19:27.620Z,2.55
2023-05-05T08:22:36.260Z,2.37
2023-05-05T08:25:42.367Z,2.10
2023-05-05T08:29:06.179Z,2.53
2023-05-05T08:32:09.075Z,2.30
2023-05-05T08:35:11.876Z,2.50
2023-05-05T08:38:15.081Z,2.75
2023-05-05T08:41:21.118Z,2.65
2023-05-05T08:44:23.366Z,2.60
2023-05-05T08:47:25.652Z,2.53
2023-05-05T08:50:31.714Z,2.53
2023-05-05T08:53:52.805Z,2.30
2023-05-05T08:57:07.026Z,2.67
2023-05-05T09:00:13.515Z,2.22
2023-05-05T09:03:22.718Z,2.70
2023-05-05T09:06:33.382Z,2.45
2023-05-05T09:09:47.437Z,2.53
2023-05-05T09:12:51.578Z,2.65
2023-05-05T09:15:53.926Z,3.15
2023-05-05T09:19:06.364Z,2.72
2023-05-05T09:22:08.609Z,2.70
2023-05-05T09:25:15.659Z,2.50
2023-05-05T09:28:18.291Z,2.60
2023-05-05T09:31:20.835Z,2.60
2023-05-05T09:34:22.946Z,2.30
2023-05-05T09:37:31.564Z,2.58
2023-05-05T09:40:45.482Z,2.63
2023-05-05T09:43:54.191Z,2.10
2023-05-05T09:46:58.247Z,2.00
2023-05-05T09:50:00.847Z,2.85
2023-05-05T09:53:03.909Z,2.78
2023-05-05T09:56:07.025Z,2.87
2023-05-05T09:59:11.200Z,2.42
2023-05-05T10:02:14.396Z,2.35
2023-05-05T10:05:19.096Z,2.23
2023-05-05T10:08:24.603Z,1.70
2023-05-05T10:11:26.954Z,2.00
2023-05-05T10:14:35.862Z,1.73
2023-05-05T10:18:05.953Z,2.22
2023-05-05T10:21:11.269Z,2.10
2023-05-05T10:24:19.982Z,2.47
2023-05-05T10:27:24.728Z,2.53
2023-05-05T10:30:36.963Z,2.03
2023-05-05T10:33:50.694Z,1.98
2023-05-05T10:36:55.157Z,2.17
2023-05-05T10:39:59.438Z,2.10
2023-05-05T10:43:01.910Z,2.05
2023-05-05T10:46:04.577Z,2.10
2023-05-05T10:49:25.880Z,2.20
2023-05-05T10:52:48.331Z,2.33
2023-05-05T10:56:05.554Z,2.22
2023-05-05T10:59:40.135Z,2.17
2023-05-05T11:02:44.691Z,2.08
2023-05-05T11:06:05.781Z,1.70
2023-05-05T11:09:29.577Z,1.87
2023-05-05T11:12:33.028Z,2.00
2023-05-05T11:15:37.824Z,1.70
2023-05-05T11:18:44.287Z,2.20
2023-05-05T11:22:01.977Z,2.00
2023-05-05T11:25:35.562Z,2.17
2023-05-05T11:28:58.154Z,2.15
2023-05-05T11:32:17.884Z,2.13
2023-05-05T11:35:20.093Z,2.30
2023-05-05T11:38:32.044Z,1.83
2023-05-05T11:42:06.602Z,2.00
2023-05-05T11:45:22.964Z,2.15
2023-05-05T11:48:27.805Z,2.47
2023-05-05T11:51:31.016Z,2.40
2023-05-05T11:54:35.479Z,2.13
2023-05-05T11:57:37.847Z,2.00
2023-05-05T12:00:40.025Z,2.25
2023-05-05T12:03:43.431Z,1.77
2023-05-05T12:06:46.301Z,1.88
2023-05-05T12:09:49.320Z,1.23
2023-05-05T12:12:53.174Z,1.60
2023-05-05T12:15:57.367Z,1.90
2023-05-05T12:19:07.349Z,2.33
2023-05-05T12:22:09.595Z,2.08
2023-05-05T12:25:11.846Z,2.00
2023-05-05T12:28:14.032Z,1.63
2023-05-05T12:31:16.731Z,2.25
2023-05-05T12:34:21.387Z,1.97
2023-05-05T12:37:25.391Z,1.90
2023-05-05T12:40:47.980Z,1.90
2023-05-05T12:43:56.025Z,2.00
2023-05-05T12:46:59.293Z,1.88
2023-05-05T12:50:03.205Z,1.70
2023-05-05T12:53:05.239Z,2.17
2023-05-05T12:56:29.978Z,2.28
2023-05-05T12:59:33.429Z,1.90
2023-05-05T13:02:35.762Z,1.67
2023-05-05T13:05:38.074Z,1.77
2023-05-05T13:08:43.561Z,1.90
2023-05-05T13:11:45.708Z,1.63
2023-05-05T13:14:47.962Z,2.00
2023-05-05T13:17:59.145Z,1.70
2023-05-05T13:21:01.307Z,1.73
2023-05-05T13:27:09.155Z,1.55
2023-05-05T13:30:11.776Z,1.77
2023-05-05T13:33:14.074Z,1.90
2023-05-05T13:36:16.274Z,1.60
2023-05-05T13:39:18.856Z,1.52
2023-05-05T13:45:37.147Z,1.87
2023-05-05T13:48:39.828Z,1.90
2023-05-05T13:51:42.131Z,1.75
2023-05-05T13:54:44.321Z,1.58
2023-05-05T13:57:46.668Z,1.73
2023-05-05T14:00:48.920Z,1.90
2023-05-05T14:03:51.308Z,1.67
2023-05-05T14:06:53.545Z,1.53
2023-05-05T14:09:55.795Z,2.00
2023-05-05T14:12:58.086Z,1.83
2023-05-05T14:16:00.331Z,1.88
2023-05-05T14:19:02.554Z,1.98
2023-05-05T14:22:04.782Z,2.10
2023-05-05T14:25:07.527Z,1.85
2023-05-05T14:28:09.844Z,1.93
2023-05-05T14:31:12.129Z,1.70
2023-05-05T14:34:14.283Z,1.90
2023-05-05T14:37:19.498Z,2.00
2023-05-05T14:40:21.802Z,2.28
2023-05-05T14:43:24.047Z,2.10
2023-05-05T14:46:27.407Z,1.65
2023-05-05T14:49:29.652Z,1.90
2023-05-05T14:52:31.820Z,1.83
2023-05-05T14:55:34.235Z,2.03
2023-05-05T14:58:36.487Z,2.20
2023-05-05T15:01:38.766Z,1.93
2023-05-05T15:04:40.955Z,1.98
2023-05-05T15:07:43.160Z,1.63
2023-05-05T15:10:46.094Z,1.70
2023-05-05T15:13:48.313Z,1.80
2023-05-05T15:16:50.615Z,1.77
2023-05-05T15:19:55.723Z,1.70
2023-05-05T15:22:58.094Z,2.03
2023-05-05T15:26:00.415Z,1.50
2023-05-05T15:29:03.236Z,1.92
2023-05-05T15:32:05.788Z,2.15
2023-05-05T15:35:08.708Z,1.70
2023-05-05T15:38:11.076Z,1.90
2023-05-05T15:41:13.304Z,1.55
2023-05-05T15:44:15.975Z,2.00
2023-05-05T15:47:18.651Z,1.80
2023-05-05T15:50:20.985Z,1.45
2023-05-05T15:53:23.226Z,1.75
2023-05-05T15:56:27.366Z,2.00
2023-05-05T15:59:29.513Z,1.80
2023-05-05T16:02:31.689Z,1.83
2023-05-05T16:05:33.898Z,1.67
2023-05-05T16:08:36.336Z,1.90
2023-05-05T16:11:38.570Z,1.70
2023-05-05T16:14:40.770Z,1.60
2023-05-05T16:17:42.983Z,1.80
2023-05-05T16:20:45.265Z,1.35
2023-05-05T16:23:47.472Z,1.85
2023-05-05T16:26:49.733Z,1.80
2023-05-05T16:29:53.238Z,1.90
2023-05-05T16:32:55.500Z,1.92
2023-05-05T16:35:57.717Z,1.48
2023-05-05T16:38:59.902Z,1.70
2023-05-05T16:42:02.844Z,1.65
2023-05-05T16:45:06.778Z,1.70
2023-05-05T16:48:09.327Z,1.93
2023-05-05T16:51:12.914Z,1.70
2023-05-05T16:54:15.084Z,1.40
2023-05-05T16:57:17.471Z,1.52
2023-05-05T17:00:20.020Z,1.80
2023-05-05T17:03:22.700Z,2.17
2023-05-05T17:06:24.918Z,1.80
2023-05-05T17:09:27.498Z,1.40
2023-05-05T17:12:29.621Z,1.35
2023-05-05T17:15:31.965Z,1.80
2023-05-05T17:18:34.168Z,1.83
2023-05-05T17:21:36.327Z,1.73
2023-05-05T17:24:38.599Z,1.45
2023-05-05T17:27:41.763Z,1.90
2023-05-05T17:30:44.102Z,1.90
2023-05-05T17:33:46.233Z,1.77
2023-05-05T17:36:48.450Z,1.67
2023-05-05T17:39:50.591Z,1.80
2023-05-05T17:42:52.734Z,1.70
2023-05-05T17:45:54.935Z,2.20
2023-05-05T17:48:57.342Z,2.10
2023-05-05T17:51:59.527Z,1.92
2023-05-05T17:55:01.729Z,2.05
2023-05-05T17:58:04.091Z,2.03
2023-05-05T18:01:06.395Z,2.00
2023-05-05T18:04:08.727Z,1.98
2023-05-05T18:07:16.352Z,1.80
2023-05-05T18:10:18.530Z,2.00
2023-05-05T18:13:21.477Z,2.20
2023-05-05T18:16:23.829Z,2.10
2023-05-05T18:22:42.118Z,2.40
2023-05-05T18:25:44.256Z,3.13
2023-05-05T18:28:46.446Z,2.90
2023-05-05T18:31:53.289Z,2.67
2023-05-05T18:34:55.836Z,3.53
2023-05-05T18:37:58.018Z,2.95
2023-05-05T18:41:00.197Z,3.00
2023-05-05T18:44:04.865Z,2.75
2023-05-05T18:47:07.790Z,3.30
2023-05-05T18:50:10.678Z,3.50
2023-05-05T18:53:14.897Z,3.25
2023-05-05T18:56:17.188Z,3.28
2023-05-05T18:59:19.353Z,3.15
2023-05-05T19:02:21.631Z,3.03
2023-05-05T19:11:56.284Z,3.67
2023-05-05T19:14:58.442Z,2.83
2023-05-05T19:18:00.833Z,3.75
2023-05-05T19:21:03.082Z,3.70
2023-05-05T19:24:07.831Z,4.10
2023-05-05T19:27:15.472Z,4.32
2023-05-05T19:30:19.381Z,4.78
2023-05-05T19:33:22.935Z,3.87
2023-05-05T19:36:25.934Z,3.88
2023-05-05T19:39:28.144Z,4.28
2023-05-05T19:42:30.374Z,4.60
2023-05-05T19:45:33.764Z,4.15
2023-05-05T19:48:36.023Z,4.03
2023-05-05T19:51:38.143Z,4.88
2023-05-05T19:54:40.274Z,5.07
2023-05-05T19:57:42.507Z,5.00
2023-05-05T20:00:44.666Z,4.70
2023-05-05T20:03:47.072Z,4.77
2023-05-05T20:06:49.360Z,4.75
2023-05-05T20:09:51.545Z,5.38
2023-05-05T20:12:53.965Z,5.43
2023-05-05T20:15:56.318Z,5.80
2023-05-05T20:18:58.562Z,5.25
2023-05-05T20:22:00.870Z,6.00
2023-05-05T20:25:03.047Z,6.00
2023-05-05T20:28:05.316Z,6.63
2023-05-05T20:31:07.708Z,7.70
2023-05-05T20:34:09.897Z,6.97
2023-05-05T20:37:13.790Z,7.97
2023-05-05T20:40:16.194Z,7.32
2023-05-05T20:43:19.017Z,7.93
2023-05-05T20:46:21.179Z,7.55
2023-05-05T20:49:23.395Z,8.35
2023-05-05T20:52:25.682Z,8.50
2023-05-05T20:55:27.975Z,8.70
2023-05-05T20:58:30.195Z,8.02
2023-05-05T21:01:32.573Z,9.55
2023-05-05T21:04:34.903Z,8.80
2023-05-05T21:07:37.113Z,9.45
2023-05-05T21:10:39.528Z,8.60
2023-05-05T21:13:41.699Z,8.77
2023-05-05T21:16:45.937Z,7.70
2023-05-05T21:19:48.176Z,7.78
2023-05-05T21:22:50.340Z,8.65
2023-05-05T21:25:52.526Z,8.48
2023-05-05T21:28:54.629Z,8.43
2023-05-05T21:31:57.068Z,7.85
2023-05-05T21:34:59.327Z,7.80
2023-05-05T21:38:01.538Z,7.93
2023-05-05T21:41:03.803Z,7.50
2023-05-05T21:44:05.970Z,7.83
2023-05-05T21:47:08.356Z,6.35
2023-05-05T21:50:12.184Z,6.80
2023-05-05T21:53:14.596Z,6.35
2023-05-05T21:56:16.849Z,6.03
2023-05-05T21:59:19.035Z,7.13
2023-05-05T22:02:21.255Z,6.75
2023-05-05T22:05:23.472Z,6.40
2023-05-05T22:08:25.695Z,6.55
2023-05-05T22:14:44.070Z,5.47
2023-05-05T22:17:49.104Z,5.60
2023-05-05T22:20:52.142Z,5.50
2023-05-05T22:23:54.402Z,5.45
2023-05-05T22:26:57.410Z,5.45
2023-05-05T22:29:59.754Z,5.47
2023-05-05T22:33:02.277Z,4.53
2023-05-05T22:36:04.746Z,4.57
2023-05-05T22:39:07.391Z,4.88
2023-05-05T22:42:09.729Z,4.60
2023-05-05T22:45:12.170Z,4.73
2023-05-05T22:48:14.993Z,4.63
2023-05-05T22:51:17.814Z,4.90
2023-05-05T22:54:20.150Z,4.95
2023-05-05T22:57:22.811Z,5.03
2023-05-05T23:00:27.636Z,5.03
2023-05-05T23:03:29.818Z,5.22
2023-05-05T23:06:32.196Z,4.77
2023-05-05T23:09:34.350Z,4.70
2023-05-05T23:12:36.591Z,4.97
2023-05-05T23:15:38.957Z,5.00
2023-05-05T23:18:41.097Z,5.00
2023-05-05T23:21:52.700Z,5.07
2023-05-05T23:24:56.108Z,4.50
2023-05-05T23:27:58.345Z,5.20
2023-05-05T23:31:00.743Z,5.47
2023-05-05T23:34:02.921Z,5.25
2023-05-05T23:37:06.422Z,5.20
2023-05-05T23:40:09.282Z,5.25
2023-05-05T23:43:12.109Z,5.43
2023-05-05T23:46:14.470Z,4.93
2023-05-05T23:49:16.732Z,4.97
2023-05-05T23:52:21.906Z,5.85
2023-05-05T23:55:25.451Z,5.32
2023-05-05T23:58:27.662Z,5.05
